Time;durP1;ratioP1;P1;durP2;ratioP2;P2;SDS_P1;SDS_P2;PMS_P1;PMS_P2;Temp;Humidity;BMP_temperature;BMP_pressure;BME280_temperature;BME280_humidity;BME280_pressure;Samples;Min_cycle;Max_cycle;Signal;HPM_P1;HPM_P2
2022/11/17 00:00:13;;;;;;;13.27;8.45;;;5.30;97.10;;;;;;5075175;28;20032;-74
2022/11/17 00:02:39;;;;;;;12.35;7.43;;;5.30;97.00;;;;;;5081912;28;20017;-73
2022/11/17 00:05:05;;;;;;;13.63;7.85;;;5.20;97.00;;;;;;5074575;28;20373;-73
2022/11/17 00:07:30;;;;;;;13.45;8.00;;;5.20;96.70;;;;;;5071914;28;20060;-73
2022/11/17 00:09:55;;;;;;;10.25;6.72;;;5.20;96.80;;;;;;5067797;28;20036;-73
2022/11/17 00:15:12;;;;;;;10.73;7.25;;;5.20;96.60;;;;;;5063625;28;20463;-74
2022/11/17 00:17:38;;;;;;;14.57;7.95;;;5.20;96.80;;;;;;5067505;28;20112;-73
2022/11/17 00:22:48;;;;;;;13.63;8.38;;;5.20;96.80;;;;;;5070110;28;20108;-75
2022/11/17 00:25:14;;;;;;;14.25;8.63;;;5.20;96.90;;;;;;5069157;28;20123;-74
2022/11/17 00:27:39;;;;;;;12.43;8.25;;;5.20;96.80;;;;;;5065545;28;20045;-73
2022/11/17 00:30:05;;;;;;;17.35;8.35;;;5.20;96.90;;;;;;5067822;28;20507;-73
2022/11/17 00:35:15;;;;;;;12.32;8.25;;;5.10;96.80;;;;;;5065026;28;20039;-75
2022/11/17 00:40:25;;;;;;;11.82;7.35;;;5.20;96.70;;;;;;5064354;28;20043;-73
2022/11/17 00:42:50;;;;;;;16.05;9.48;;;5.10;96.60;;;;;;5060153;28;20376;-74
2022/11/17 00:45:16;;;;;;;15.75;9.45;;;5.10;96.70;;;;;;5069164;28;20392;-74
2022/11/17 00:47:42;;;;;;;12.20;7.10;;;5.10;96.60;;;;;;5069441;28;20056;-75
2022/11/17 00:50:08;;;;;;;9.93;6.18;;;5.10;96.40;;;;;;5069683;28;20396;-76
2022/11/17 00:52:34;;;;;;;16.40;9.65;;;5.10;96.20;;;;;;5061813;28;20127;-73
2022/11/17 00:54:59;;;;;;;13.40;8.82;;;5.10;96.40;;;;;;5069813;28;20369;-75
2022/11/17 00:57:24;;;;;;;14.63;9.52;;;5.10;96.40;;;;;;5056945;28;20032;-75
2022/11/17 00:59:50;;;;;;;18.75;9.98;;;5.10;96.40;;;;;;5070361;28;20036;-74
2022/11/17 01:02:15;;;;;;;17.08;10.15;;;5.10;96.30;;;;;;5056939;28;20040;-74
2022/11/17 01:04:41;;;;;;;16.85;9.63;;;5.10;96.40;;;;;;5074225;28;20047;-74
2022/11/17 01:07:06;;;;;;;13.65;8.75;;;5.10;96.30;;;;;;5066642;28;20067;-75
2022/11/17 01:09:32;;;;;;;10.10;6.72;;;5.10;96.30;;;;;;5068488;28;20036;-74
2022/11/17 01:11:57;;;;;;;15.80;10.23;;;5.10;96.10;;;;;;5064382;28;20035;-75
2022/11/17 01:14:26;;;;;;;14.52;8.00;;;5.10;96.30;;;;;;5069243;28;20075;-75
2022/11/17 01:16:52;;;;;;;15.18;9.65;;;5.00;96.10;;;;;;5067505;28;20482;-74
2022/11/17 01:19:19;;;;;;;17.65;10.20;;;5.10;96.30;;;;;;5067510;28;20070;-75
2022/11/17 01:21:45;;;;;;;16.13;10.07;;;5.00;96.40;;;;;;5064744;28;20024;-73
2022/11/17 01:24:11;;;;;;;19.27;11.18;;;5.00;96.20;;;;;;5065533;28;20020;-74
2022/11/17 01:26:38;;;;;;;18.52;9.38;;;5.00;96.00;;;;;;5063111;28;20082;-74
2022/11/17 01:29:04;;;;;;;16.38;9.60;;;5.10;96.20;;;;;;5056583;28;20044;-74
2022/11/17 01:31:33;;;;;;;18.92;10.77;;;5.00;96.10;;;;;;5068242;28;20044;-75
2022/11/17 01:34:00;;;;;;;16.35;9.65;;;5.00;95.80;;;;;;5073232;28;20032;-74
2022/11/17 01:36:29;;;;;;;13.60;9.63;;;5.00;95.90;;;;;;5073227;28;20044;-77
2022/11/17 01:38:55;;;;;;;16.60;10.02;;;5.00;95.90;;;;;;5073767;28;20021;-75
2022/11/17 01:41:24;;;;;;;16.98;10.00;;;5.00;96.10;;;;;;5073712;28;20039;-74
2022/11/17 01:43:54;;;;;;;16.23;9.35;;;5.00;96.00;;;;;;5069210;28;20039;-75
2022/11/17 01:46:33;;;;;;;15.38;9.45;;;4.90;96.20;;;;;;5070533;28;20052;-74
2022/11/17 01:49:12;;;;;;;13.13;8.70;;;4.90;96.40;;;;;;5067450;28;20029;-75
2022/11/17 01:51:43;;;;;;;12.82;8.13;;;4.90;96.50;;;;;;5083322;28;20025;-74
2022/11/17 01:54:11;;;;;;;14.10;8.52;;;4.80;96.40;;;;;;5070122;28;20037;-75
2022/11/17 01:56:41;;;;;;;16.30;9.00;;;4.80;96.50;;;;;;5071705;28;20033;-75
2022/11/17 01:59:20;;;;;;;12.35;8.02;;;4.80;96.60;;;;;;5064814;28;20028;-74
2022/11/17 02:01:56;;;;;;;16.02;9.50;;;4.80;96.40;;;;;;5072743;28;20552;-73
2022/11/17 02:04:28;;;;;;;15.00;10.20;;;4.80;96.50;;;;;;5070596;28;20021;-75
2022/11/17 02:07:19;;;;;;;15.40;9.65;;;4.80;96.60;;;;;;5072972;28;20039;-74
2022/11/17 02:09:45;;;;;;;17.10;10.32;;;4.80;96.60;;;;;;5073092;28;20396;-74
2022/11/17 02:12:13;;;;;;;16.60;9.40;;;4.80;96.40;;;;;;5069415;28;20465;-75
2022/11/17 02:14:39;;;;;;;16.65;10.32;;;4.80;96.60;;;;;;5072640;28;20461;-73
2022/11/17 02:17:06;;;;;;;16.92;10.27;;;4.70;96.40;;;;;;5072652;28;20024;-76
2022/11/17 02:19:35;;;;;;;14.60;9.43;;;4.80;96.50;;;;;;5074414;28;20048;-77
2022/11/17 02:22:26;;;;;;;16.65;10.27;;;4.70;96.20;;;;;;5073336;28;20055;-75
2022/11/17 02:25:16;;;;;;;18.23;9.77;;;4.70;96.30;;;;;;5067381;28;20040;-75
2022/11/17 02:28:03;;;;;;;16.55;10.02;;;4.70;96.40;;;;;;5072766;28;20029;-75
2022/11/17 02:31:02;;;;;;;14.63;9.60;;;4.70;96.20;;;;;;5080774;28;20024;-74
2022/11/17 02:33:48;;;;;;;14.18;8.20;;;4.70;96.30;;;;;;5071936;28;20346;-74
2022/11/17 02:36:42;;;;;;;15.43;9.57;;;4.60;96.30;;;;;;5069168;28;20368;-77
2022/11/17 02:39:18;;;;;;;16.75;9.27;;;4.60;96.30;;;;;;5066012;28;20028;-77
2022/11/17 02:42:12;;;;;;;15.52;9.70;;;4.60;96.20;;;;;;5062127;28;20440;-75
2022/11/17 02:44:51;;;;;;;14.85;10.48;;;4.60;96.30;;;;;;5064016;28;20024;-75
2022/11/17 02:47:24;;;;;;;15.07;7.53;;;4.60;96.00;;;;;;5072273;28;20052;-78
2022/11/17 02:49:58;;;;;;;13.77;8.82;;;4.60;96.00;;;;;;5068762;28;20358;-76
2022/11/17 02:52:25;;;;;;;16.88;9.65;;;4.60;96.20;;;;;;5065295;28;20033;-75
2022/11/17 02:54:50;;;;;;;13.50;8.93;;;4.60;96.10;;;;;;5072558;28;20039;-74
2022/11/17 02:57:51;;;;;;;13.52;7.78;;;4.60;96.00;;;;;;5067164;28;20040;-74
2022/11/17 03:00:18;;;;;;;15.63;9.55;;;4.50;95.70;;;;;;5029281;28;20037;-74
2022/11/17 03:03:12;;;;;;;13.80;8.80;;;4.60;95.80;;;;;;5064352;28;20071;-75
2022/11/17 03:05:47;;;;;;;16.17;9.88;;;4.50;95.80;;;;;;5064563;28;20020;-74
2022/11/17 03:08:26;;;;;;;15.38;9.65;;;4.50;95.70;;;;;;5068045;28;20021;-75
2022/11/17 03:11:03;;;;;;;15.00;8.63;;;4.50;95.70;;;;;;5062034;28;20028;-73
2022/11/17 03:13:38;;;;;;;15.18;9.20;;;4.60;95.60;;;;;;5077434;28;20028;-74
2022/11/17 03:16:29;;;;;;;15.80;9.27;;;4.50;95.50;;;;;;5078599;28;20029;-77
2022/11/17 03:19:18;;;;;;;12.25;7.75;;;4.40;95.60;;;;;;5062418;28;20036;-73
2022/11/17 03:21:58;;;;;;;14.73;9.45;;;4.50;95.10;;;;;;5071286;28;20384;-72
2022/11/17 03:24:34;;;;;;;13.60;8.98;;;4.50;95.30;;;;;;5083288;28;20024;-74
2022/11/17 03:27:14;;;;;;;15.57;8.73;;;4.50;95.20;;;;;;5081332;28;20028;-74
2022/11/17 03:29:42;;;;;;;13.80;8.35;;;4.40;95.40;;;;;;5071636;28;20036;-74
2022/11/17 03:32:09;;;;;;;14.48;9.35;;;4.40;95.30;;;;;;5072132;28;20033;-73
2022/11/17 03:34:41;;;;;;;16.38;9.27;;;4.40;95.20;;;;;;5085157;28;20043;-75
2022/11/17 03:37:09;;;;;;;15.88;8.63;;;4.40;95.10;;;;;;5072884;28;20426;-74
2022/11/17 03:39:39;;;;;;;12.98;8.50;;;4.40;94.90;;;;;;5070298;28;20096;-76
2022/11/17 03:42:24;;;;;;;13.20;8.43;;;4.40;95.30;;;;;;5070673;28;20526;-76
2022/11/17 03:44:55;;;;;;;15.40;9.50;;;4.40;94.80;;;;;;5059845;28;20116;-75
2022/11/17 03:47:23;;;;;;;14.55;9.82;;;4.40;94.70;;;;;;5068529;28;20481;-74
2022/11/17 03:50:03;;;;;;;15.05;8.93;;;4.30;94.60;;;;;;5071835;28;20469;-75
2022/11/17 03:52:29;;;;;;;14.10;9.27;;;4.40;94.60;;;;;;5069584;28;20032;-79
2022/11/17 03:54:55;;;;;;;13.95;9.18;;;4.30;95.00;;;;;;5069444;28;20380;-74
2022/11/17 03:57:32;;;;;;;14.82;9.10;;;4.30;94.80;;;;;;5068610;28;20491;-75
2022/11/17 04:00:07;;;;;;;15.15;9.23;;;4.30;94.80;;;;;;5062509;28;20040;-74
2022/11/17 04:02:33;;;;;;;17.90;9.30;;;4.30;94.80;;;;;;5061181;28;20024;-74
2022/11/17 04:05:04;;;;;;;15.60;9.20;;;4.20;94.60;;;;;;5070756;28;20031;-73
2022/11/17 04:07:40;;;;;;;13.93;8.27;;;4.30;94.60;;;;;;5070850;28;20424;-74
2022/11/17 04:10:09;;;;;;;14.80;8.38;;;4.30;94.70;;;;;;5067285;28;20032;-74
2022/11/17 04:18:03;;;;;;;15.38;8.80;;;4.20;94.70;;;;;;5067428;28;20062;-74
2022/11/17 04:20:34;;;;;;;16.02;9.32;;;4.20;94.70;;;;;;5072131;28;20036;-75
2022/11/17 04:23:07;;;;;;;14.20;8.38;;;4.20;94.50;;;;;;5074327;28;20444;-74
2022/11/17 04:28:38;;;;;;;14.90;8.32;;;4.20;94.30;;;;;;5064820;28;20043;-73
2022/11/17 04:31:04;;;;;;;14.95;8.60;;;4.20;94.30;;;;;;5060183;28;20066;-75
2022/11/17 04:33:30;;;;;;;15.13;9.10;;;4.20;94.30;;;;;;5070840;28;20068;-73
2022/11/17 04:35:55;;;;;;;13.18;7.70;;;4.10;94.40;;;;;;5071628;28;20048;-74
2022/11/17 04:38:21;;;;;;;15.00;9.10;;;4.10;94.00;;;;;;5071342;28;20036;-73
2022/11/17 04:43:31;;;;;;;11.68;7.53;;;4.10;94.00;;;;;;5059165;28;20106;-74
2022/11/17 04:46:00;;;;;;;15.13;8.88;;;4.10;94.10;;;;;;5077835;28;20453;-74
2022/11/17 04:48:26;;;;;;;14.23;9.07;;;4.10;94.00;;;;;;5071826;28;20026;-74
2022/11/17 04:50:53;;;;;;;13.93;8.10;;;4.10;94.00;;;;;;5070613;28;20039;-74
2022/11/17 04:53:19;;;;;;;14.93;9.27;;;4.10;94.10;;;;;;5072404;28;20060;-75
2022/11/17 04:55:44;;;;;;;14.10;9.32;;;4.10;94.10;;;;;;5069797;28;20067;-73
2022/11/17 04:58:09;;;;;;;15.73;9.48;;;4.10;93.80;;;;;;5070930;28;20076;-74
2022/11/17 05:00:35;;;;;;;12.90;8.65;;;4.10;94.00;;;;;;5071969;28;20028;-74
2022/11/17 05:03:00;;;;;;;17.27;8.80;;;4.10;94.00;;;;;;5071655;28;20425;-74
2022/11/17 05:05:26;;;;;;;14.32;9.35;;;4.00;93.70;;;;;;5072152;28;20041;-74
2022/11/17 05:07:51;;;;;;;12.63;8.90;;;4.00;93.80;;;;;;5061117;28;20037;-73
2022/11/17 05:13:20;;;;;;;14.48;9.23;;;4.10;94.10;;;;;;5074773;28;20040;-76
2022/11/17 05:18:44;;;;;;;14.13;8.88;;;4.00;93.70;;;;;;5078192;28;20035;-75
2022/11/17 05:21:10;;;;;;;17.45;9.43;;;3.90;93.70;;;;;;5073568;28;20040;-74
2022/11/17 05:23:54;;;;;;;15.30;8.95;;;3.90;93.50;;;;;;5074142;28;20086;-74
2022/11/17 05:26:22;;;;;;;14.52;8.55;;;4.00;93.60;;;;;;5068234;28;20043;-74
2022/11/17 05:28:48;;;;;;;10.85;7.15;;;3.90;93.60;;;;;;5074945;28;20032;-72
2022/11/17 05:31:14;;;;;;;13.32;8.63;;;3.90;93.70;;;;;;5083383;28;20043;-71
2022/11/17 05:33:39;;;;;;;14.23;9.13;;;3.80;93.60;;;;;;5070782;28;20056;-70
2022/11/17 05:36:05;;;;;;;13.52;8.68;;;3.80;93.70;;;;;;5074748;28;20439;-74
2022/11/17 05:38:31;;;;;;;16.02;8.98;;;3.80;93.50;;;;;;5072418;28;20116;-70
2022/11/17 05:40:57;;;;;;;14.50;9.02;;;3.80;93.60;;;;;;5065903;28;20039;-69
2022/11/17 05:43:23;;;;;;;13.90;8.55;;;3.80;93.50;;;;;;5067951;28;20040;-69
2022/11/17 05:45:48;;;;;;;11.48;6.45;;;3.80;93.50;;;;;;5062677;28;20032;-69
2022/11/17 05:48:14;;;;;;;14.85;9.50;;;3.70;93.40;;;;;;5068042;28;20051;-69
2022/11/17 05:50:40;;;;;;;15.32;9.50;;;3.70;93.30;;;;;;5071976;28;20396;-69
2022/11/17 05:53:06;;;;;;;16.40;9.85;;;3.80;93.40;;;;;;5072237;28;20469;-69
2022/11/17 05:55:32;;;;;;;17.00;9.95;;;3.70;93.40;;;;;;5068880;28;20028;-70
2022/11/17 05:58:02;;;;;;;17.25;9.98;;;3.80;93.50;;;;;;5062790;28;20043;-69
2022/11/17 06:00:29;;;;;;;18.13;11.35;;;3.70;93.50;;;;;;5062128;28;20037;-70
2022/11/17 06:03:11;;;;;;;16.48;9.10;;;3.80;93.10;;;;;;5068162;28;20040;-68
2022/11/17 06:05:36;;;;;;;18.08;11.65;;;3.70;93.20;;;;;;5061841;28;20488;-66
2022/11/17 06:08:02;;;;;;;18.25;10.98;;;3.70;93.00;;;;;;5064098;28;20143;-68
2022/11/17 06:10:28;;;;;;;14.82;9.38;;;3.70;93.20;;;;;;5073760;28;20029;-68
2022/11/17 06:12:53;;;;;;;19.02;12.55;;;3.60;93.20;;;;;;5067183;28;20108;-68
2022/11/17 06:15:19;;;;;;;17.90;10.93;;;3.70;93.40;;;;;;5072527;28;20020;-69
2022/11/17 06:17:52;;;;;;;16.88;11.32;;;3.70;93.40;;;;;;5066097;28;20551;-68
2022/11/17 06:20:22;;;;;;;17.55;11.40;;;3.70;93.10;;;;;;5066918;28;20082;-68
2022/11/17 06:22:49;;;;;;;15.68;11.07;;;3.60;93.20;;;;;;5074275;28;20040;-72
2022/11/17 06:25:17;;;;;;;16.85;10.88;;;3.70;93.20;;;;;;5064825;28;20024;-74
2022/11/17 06:27:43;;;;;;;17.42;10.63;;;3.70;93.10;;;;;;5067925;28;20032;-68
2022/11/17 06:30:09;;;;;;;15.38;9.60;;;3.70;93.20;;;;;;5067875;28;20037;-68
2022/11/17 06:32:37;;;;;;;16.88;12.23;;;3.70;92.90;;;;;;5060078;28;20373;-67
2022/11/17 06:35:05;;;;;;;15.25;10.48;;;3.70;93.00;;;;;;5064821;28;20027;-71
2022/11/17 06:37:31;;;;;;;14.65;9.40;;;3.70;93.10;;;;;;5064090;28;20487;-73
2022/11/17 06:39:56;;;;;;;15.00;9.95;;;3.70;93.00;;;;;;5073163;28;20025;-68
2022/11/17 06:43:02;;;;;;;15.32;10.00;;;3.70;92.90;;;;;;5065451;28;20455;-68
2022/11/17 06:45:08;;;;;;;18.33;11.55;;;3.60;92.70;;;;;;5068075;28;20388;-68
2022/11/17 06:47:34;;;;;;;17.60;11.65;;;3.70;92.90;;;;;;5065956;28;20056;-67
2022/11/17 06:49:59;;;;;;;16.05;10.85;;;3.80;93.10;;;;;;5070604;28;20098;-67
2022/11/17 06:52:24;;;;;;;17.35;11.48;;;3.70;92.90;;;;;;5072336;28;20040;-69
2022/11/17 06:54:50;;;;;;;15.70;10.57;;;3.70;92.90;;;;;;5073010;28;20020;-68
2022/11/17 06:57:15;;;;;;;18.80;12.30;;;3.70;93.00;;;;;;5069152;28;20039;-67
2022/11/17 06:59:41;;;;;;;17.33;11.18;;;3.70;92.70;;;;;;5057566;28;20089;-67
2022/11/17 07:02:06;;;;;;;16.50;9.95;;;3.60;92.70;;;;;;5069579;28;20032;-67
2022/11/17 07:04:32;;;;;;;16.60;11.35;;;3.60;92.50;;;;;;5073355;28;20036;-69
2022/11/17 07:06:57;;;;;;;20.33;12.13;;;3.70;92.70;;;;;;5071425;28;20035;-67
2022/11/17 07:09:24;;;;;;;16.75;11.60;;;3.60;92.70;;;;;;5065361;28;20389;-73
2022/11/17 07:11:50;;;;;;;14.23;9.80;;;3.70;92.60;;;;;;5059297;28;20036;-68
2022/11/17 07:14:15;;;;;;;16.98;11.43;;;3.60;92.40;;;;;;5066139;28;20039;-68
2022/11/17 07:16:42;;;;;;;16.90;10.45;;;3.60;92.50;;;;;;5063245;28;20028;-67
2022/11/17 07:19:08;;;;;;;18.60;11.65;;;3.60;92.30;;;;;;5069376;28;20123;-68
2022/11/17 07:21:34;;;;;;;17.52;11.35;;;3.70;92.50;;;;;;5070875;28;20035;-68
2022/11/17 07:24:00;;;;;;;17.08;11.93;;;3.70;92.90;;;;;;5074089;28;20081;-69
2022/11/17 07:26:26;;;;;;;16.60;11.25;;;3.70;92.50;;;;;;5067745;28;20115;-68
2022/11/17 07:28:51;;;;;;;14.65;10.45;;;3.70;92.10;;;;;;5068020;28;20765;-69
2022/11/17 07:31:16;;;;;;;18.27;12.13;;;3.70;92.20;;;;;;5063915;28;20150;-68
2022/11/17 07:33:42;;;;;;;15.90;10.25;;;3.70;92.40;;;;;;5063408;28;20058;-68
2022/11/17 07:36:09;;;;;;;16.92;10.77;;;3.70;92.20;;;;;;5065045;28;20359;-69
2022/11/17 07:38:37;;;;;;;18.98;11.25;;;3.70;92.00;;;;;;5064274;28;20031;-71
2022/11/17 07:41:03;;;;;;;16.65;11.15;;;3.70;92.10;;;;;;5067053;28;20032;-69
2022/11/17 07:43:29;;;;;;;15.98;10.23;;;3.70;92.10;;;;;;5063900;28;20032;-68
2022/11/17 07:45:55;;;;;;;15.10;10.38;;;3.70;92.30;;;;;;5062347;28;20029;-67
2022/11/17 07:48:21;;;;;;;18.42;10.80;;;3.80;92.40;;;;;;5064154;28;20036;-68
2022/11/17 07:50:46;;;;;;;17.15;9.90;;;3.80;92.40;;;;;;5061601;28;20461;-69
2022/11/17 07:53:12;;;;;;;17.35;10.50;;;3.70;92.10;;;;;;5056955;28;20532;-69
2022/11/17 07:55:38;;;;;;;15.73;9.82;;;3.70;92.20;;;;;;5060119;28;20032;-67
2022/11/17 07:58:03;;;;;;;12.85;8.95;;;3.80;92.50;;;;;;5058736;28;20040;-67
2022/11/17 08:00:30;;;;;;;15.65;10.40;;;3.70;92.10;;;;;;5060870;28;20484;-68
2022/11/17 08:03:00;;;;;;;14.60;10.27;;;3.70;92.00;;;;;;5067107;28;20021;-69
2022/11/17 08:05:29;;;;;;;14.98;10.20;;;3.80;92.30;;;;;;5063032;28;20032;-69
2022/11/17 08:07:56;;;;;;;19.58;10.68;;;3.80;92.30;;;;;;5068978;28;20036;-70
2022/11/17 08:10:22;;;;;;;16.65;11.57;;;3.80;92.10;;;;;;5064070;28;20056;-70
2022/11/17 08:12:51;;;;;;;14.07;9.13;;;3.70;92.00;;;;;;5067105;28;20117;-69
2022/11/17 08:15:17;;;;;;;13.95;10.05;;;3.70;91.90;;;;;;5070241;28;20024;-69
2022/11/17 08:17:43;;;;;;;15.15;9.82;;;3.80;92.20;;;;;;5074503;28;20118;-67
2022/11/17 08:20:11;;;;;;;17.20;10.02;;;3.80;92.50;;;;;;5075214;28;20074;-68
2022/11/17 08:22:36;;;;;;;15.13;10.20;;;3.70;92.40;;;;;;5069512;28;20032;-69
2022/11/17 08:25:02;;;;;;;15.65;9.98;;;3.80;92.20;;;;;;5067976;28;20025;-70
2022/11/17 08:27:28;;;;;;;16.15;8.95;;;3.70;92.30;;;;;;5066580;28;20044;-69
2022/11/17 08:29:53;;;;;;;12.80;8.88;;;3.70;92.00;;;;;;5067560;28;20052;-69
2022/11/17 08:32:18;;;;;;;12.43;8.20;;;3.80;92.10;;;;;;5082096;28;20059;-70
2022/11/17 08:34:44;;;;;;;14.02;9.32;;;3.80;92.10;;;;;;5076010;28;20105;-67
2022/11/17 08:37:09;;;;;;;22.38;9.38;;;3.80;91.90;;;;;;5060272;28;20072;-74
2022/11/17 08:39:35;;;;;;;16.70;10.27;;;3.80;92.00;;;;;;5072455;28;20036;-68
2022/11/17 08:42:00;;;;;;;14.10;8.15;;;3.80;92.30;;;;;;5072433;28;20032;-69
2022/11/17 08:44:26;;;;;;;15.50;9.55;;;3.80;92.00;;;;;;5076342;28;20036;-69
2022/11/17 08:46:51;;;;;;;16.98;10.55;;;3.80;92.20;;;;;;5077258;28;20079;-70
2022/11/17 08:49:17;;;;;;;15.38;10.13;;;3.80;92.10;;;;;;5074276;28;20115;-76
2022/11/17 08:51:42;;;;;;;17.55;10.55;;;3.80;92.40;;;;;;5071728;28;20036;-68
2022/11/17 08:54:10;;;;;;;14.95;9.70;;;3.80;92.50;;;;;;5073096;28;20098;-68
2022/11/17 08:56:36;;;;;;;17.35;10.98;;;3.80;92.70;;;;;;5067492;28;20477;-68
2022/11/17 08:59:01;;;;;;;16.33;8.75;;;3.80;92.90;;;;;;5068169;28;20025;-71
2022/11/17 09:01:27;;;;;;;15.18;10.13;;;3.70;93.00;;;;;;5070029;28;20024;-73
2022/11/17 09:03:52;;;;;;;14.48;8.63;;;3.70;93.50;;;;;;5075830;28;20032;-68
2022/11/17 09:06:18;;;;;;;13.68;9.32;;;3.70;93.70;;;;;;5072552;28;20067;-70
2022/11/17 09:08:45;;;;;;;17.27;10.95;;;3.60;94.20;;;;;;5067374;28;20028;-69
2022/11/17 09:11:10;;;;;;;16.58;11.00;;;3.60;94.50;;;;;;5074459;28;20032;-76
2022/11/17 09:13:36;;;;;;;17.40;11.32;;;3.60;94.70;;;;;;5071799;28;20040;-70
2022/11/17 09:16:10;;;;;;;15.30;11.25;;;3.60;94.90;;;;;;5075090;28;20032;-73
2022/11/17 09:18:37;;;;;;;19.75;11.85;;;3.50;95.20;;;;;;5084907;28;20032;-68
2022/11/17 09:21:11;;;;;;;19.27;11.73;;;3.50;95.20;;;;;;5089409;28;20103;-70
2022/11/17 09:23:36;;;;;;;18.42;9.63;;;3.60;95.20;;;;;;5077368;28;20038;-68
2022/11/17 09:26:10;;;;;;;19.95;10.35;;;3.50;95.60;;;;;;5073027;28;20028;-72
2022/11/17 09:28:36;;;;;;;19.40;11.40;;;3.50;95.60;;;;;;5074339;28;20032;-68
2022/11/17 09:31:12;;;;;;;16.65;11.45;;;3.50;95.60;;;;;;5074244;28;20024;-74
2022/11/17 09:33:38;;;;;;;18.30;11.43;;;3.50;95.90;;;;;;5067258;28;20090;-67
2022/11/17 09:36:06;;;;;;;18.10;12.18;;;3.50;95.90;;;;;;5069166;28;20478;-70
2022/11/17 09:38:32;;;;;;;16.70;9.65;;;3.60;95.90;;;;;;5072664;28;20029;-69
2022/11/17 09:40:58;;;;;;;15.07;9.80;;;3.50;95.80;;;;;;5070913;28;20028;-67
2022/11/17 09:43:32;;;;;;;16.25;9.50;;;3.60;95.90;;;;;;5071307;28;20546;-69
2022/11/17 09:46:15;;;;;;;20.48;11.25;;;3.60;96.30;;;;;;5070427;28;20530;-67
2022/11/17 09:48:47;;;;;;;19.23;11.88;;;3.60;96.50;;;;;;5079331;28;20035;-68
2022/11/17 09:51:19;;;;;;;21.13;12.27;;;3.60;96.60;;;;;;5077458;28;20035;-69
2022/11/17 09:54:02;;;;;;;18.67;11.20;;;3.50;96.70;;;;;;5079593;28;20461;-69
2022/11/17 09:56:29;;;;;;;20.83;11.82;;;3.50;96.80;;;;;;5073077;28;20037;-68
2022/11/17 09:58:59;;;;;;;19.45;11.55;;;3.50;96.90;;;;;;5070061;28;20040;-69
2022/11/17 10:01:27;;;;;;;17.33;11.40;;;3.50;96.90;;;;;;5070681;28;20028;-71
2022/11/17 10:03:55;;;;;;;19.42;11.68;;;3.60;97.00;;;;;;5073299;28;20032;-70
2022/11/17 10:06:23;;;;;;;17.33;11.55;;;3.60;96.90;;;;;;5070377;28;20092;-69
2022/11/17 10:09:16;;;;;;;21.05;11.88;;;3.60;97.10;;;;;;5072477;28;20032;-67
2022/11/17 10:11:43;;;;;;;18.10;11.55;;;3.60;97.10;;;;;;5060249;28;20039;-68
2022/11/17 10:14:13;;;;;;;18.15;11.40;;;3.60;97.30;;;;;;5070338;28;20554;-69
2022/11/17 10:16:53;;;;;;;17.92;11.25;;;3.60;97.40;;;;;;5064142;28;20020;-68
2022/11/17 10:19:24;;;;;;;18.63;11.07;;;3.60;97.40;;;;;;5089181;28;20035;-68
2022/11/17 10:22:02;;;;;;;18.10;12.10;;;3.60;97.20;;;;;;5077501;28;20055;-68
2022/11/17 10:24:33;;;;;;;20.60;11.25;;;3.60;97.30;;;;;;5069015;28;20035;-68
2022/11/17 10:27:05;;;;;;;19.10;11.23;;;3.60;97.40;;;;;;5072262;28;20025;-69
2022/11/17 10:29:30;;;;;;;15.43;10.27;;;3.60;97.40;;;;;;5071826;28;20072;-68
2022/11/17 10:31:56;;;;;;;18.48;11.48;;;3.60;97.40;;;;;;5085810;28;20453;-68
2022/11/17 10:34:31;;;;;;;18.50;10.68;;;3.60;97.50;;;;;;5085645;28;20037;-70
2022/11/17 10:37:03;;;;;;;17.65;11.00;;;3.60;97.40;;;;;;5073526;28;20024;-67
2022/11/17 10:39:40;;;;;;;15.45;9.55;;;3.60;97.50;;;;;;5072701;28;20081;-67
2022/11/17 10:42:19;;;;;;;19.40;10.90;;;3.60;97.30;;;;;;5076664;28;20487;-68
2022/11/17 10:44:50;;;;;;;18.83;11.05;;;3.60;97.40;;;;;;5068257;28;20115;-69
2022/11/17 10:47:37;;;;;;;16.88;10.68;;;3.60;97.50;;;;;;5081283;28;20119;-68
2022/11/17 10:50:23;;;;;;;16.08;9.45;;;3.60;97.40;;;;;;5066450;28;20037;-68
2022/11/17 10:52:50;;;;;;;18.00;11.32;;;3.60;97.30;;;;;;5065352;28;20049;-68
2022/11/17 10:55:32;;;;;;;20.70;11.52;;;3.60;97.40;;;;;;5078660;28;20039;-68
2022/11/17 10:58:07;;;;;;;17.50;11.07;;;3.70;97.40;;;;;;5063711;28;20025;-68
2022/11/17 11:00:35;;;;;;;16.15;9.95;;;3.70;97.50;;;;;;5065067;28;20090;-67
2022/11/17 11:03:16;;;;;;;16.00;10.07;;;3.70;97.30;;;;;;5067272;28;20025;-67
2022/11/17 11:06:11;;;;;;;16.05;9.63;;;3.80;97.10;;;;;;5072206;28;20028;-69
2022/11/17 11:08:50;;;;;;;15.77;9.63;;;3.80;97.10;;;;;;5068160;28;20033;-68
2022/11/17 11:11:26;;;;;;;16.73;9.90;;;3.90;97.20;;;;;;5071708;28;20032;-69
2022/11/17 11:13:56;;;;;;;14.95;9.55;;;3.90;96.90;;;;;;5066643;28;20423;-68
2022/11/17 11:16:25;;;;;;;16.38;10.15;;;3.90;97.00;;;;;;5072299;28;20024;-71
2022/11/17 11:18:52;;;;;;;18.67;9.95;;;4.00;97.10;;;;;;5069076;28;20029;-68
2022/11/17 11:21:44;;;;;;;15.98;9.48;;;3.90;97.00;;;;;;5069643;28;20111;-71
2022/11/17 11:24:41;;;;;;;14.77;8.93;;;3.90;97.10;;;;;;5076020;28;20039;-68
2022/11/17 11:27:31;;;;;;;14.45;9.13;;;4.00;97.10;;;;;;5064640;28;20034;-69
2022/11/17 11:30:05;;;;;;;17.98;9.50;;;3.90;97.30;;;;;;5066679;28;20089;-69
2022/11/17 11:32:54;;;;;;;13.10;8.85;;;3.90;97.30;;;;;;5071369;28;20086;-68
2022/11/17 11:35:22;;;;;;;12.98;9.18;;;3.90;97.10;;;;;;5064351;28;20064;-69
2022/11/17 11:37:50;;;;;;;12.45;8.48;;;3.80;97.10;;;;;;5077478;28;20444;-68
2022/11/17 11:40:41;;;;;;;14.98;9.07;;;3.80;97.10;;;;;;5078963;28;20028;-70
2022/11/17 11:43:46;;;;;;;11.48;7.32;;;3.80;96.90;;;;;;5054919;28;20048;-67
2022/11/17 11:46:21;;;;;;;11.70;7.70;;;3.90;97.00;;;;;;5068089;28;20040;-70
2022/11/17 11:48:50;;;;;;;14.25;9.30;;;3.90;97.20;;;;;;5069170;28;20033;-69
2022/11/17 11:51:19;;;;;;;14.98;9.00;;;3.90;97.30;;;;;;5067460;28;20039;-68
2022/11/17 11:54:19;;;;;;;13.30;8.43;;;3.90;97.30;;;;;;5069623;28;20049;-68
2022/11/17 11:56:47;;;;;;;13.50;7.78;;;3.90;97.10;;;;;;5060604;28;20032;-71
2022/11/17 11:59:19;;;;;;;11.30;7.45;;;3.90;97.30;;;;;;5065091;28;20449;-70
2022/11/17 12:02:01;;;;;;;12.70;7.40;;;3.90;97.00;;;;;;5058000;28;20486;-69
2022/11/17 12:04:58;;;;;;;12.60;7.50;;;3.90;96.90;;;;;;5065071;28;20029;-69
2022/11/17 12:07:40;;;;;;;11.77;7.65;;;4.00;97.00;;;;;;5065209;28;20045;-70
2022/11/17 12:10:32;;;;;;;12.50;7.93;;;4.10;97.10;;;;;;5062119;28;21183;-69
2022/11/17 12:12:58;;;;;;;13.10;8.25;;;4.00;96.70;;;;;;5068463;28;20039;-68
2022/11/17 12:15:24;;;;;;;11.15;6.97;;;4.00;96.90;;;;;;5068799;28;20124;-69
2022/11/17 12:18:12;;;;;;;12.95;7.60;;;4.00;96.80;;;;;;5064279;28;20112;-68
2022/11/17 12:20:37;;;;;;;11.93;7.38;;;4.00;96.90;;;;;;5067340;28;20028;-69
2022/11/17 12:23:28;;;;;;;12.50;7.97;;;4.10;97.00;;;;;;5069582;28;20028;-68
2022/11/17 12:25:56;;;;;;;11.18;7.22;;;4.10;97.10;;;;;;5062603;28;20473;-68
2022/11/17 12:28:37;;;;;;;11.57;7.53;;;4.00;96.80;;;;;;5066071;28;20036;-69
2022/11/17 12:31:10;;;;;;;9.93;6.85;;;4.00;96.90;;;;;;5064477;28;20035;-71
2022/11/17 12:33:51;;;;;;;11.98;7.68;;;4.00;96.90;;;;;;5069073;28;20040;-71
2022/11/17 12:36:22;;;;;;;8.05;4.60;;;4.00;96.90;;;;;;5065718;28;20052;-71
2022/11/17 12:38:49;;;;;;;11.00;7.15;;;4.00;96.70;;;;;;5069670;28;20121;-72
2022/11/17 12:41:49;;;;;;;11.50;6.90;;;4.00;96.70;;;;;;5067254;28;20170;-71
2022/11/17 12:44:36;;;;;;;12.43;6.87;;;4.00;96.90;;;;;;5063816;28;20029;-68
2022/11/17 12:47:13;;;;;;;10.57;7.13;;;4.00;96.70;;;;;;5077263;28;20461;-71
2022/11/17 12:49:55;;;;;;;10.32;6.45;;;4.00;96.60;;;;;;5065576;28;20032;-69
2022/11/17 12:52:42;;;;;;;13.00;7.70;;;4.00;96.90;;;;;;5072799;28;20029;-68
2022/11/17 12:55:30;;;;;;;11.82;6.95;;;4.00;96.90;;;;;;5072511;28;20049;-69
2022/11/17 12:58:16;;;;;;;10.43;7.18;;;4.00;97.00;;;;;;5061841;28;20040;-70
2022/11/17 13:00:57;;;;;;;13.02;7.40;;;4.10;96.90;;;;;;5071247;28;20029;-69
2022/11/17 13:03:51;;;;;;;12.05;7.95;;;4.10;97.00;;;;;;5062040;28;20033;-68
2022/11/17 13:06:17;;;;;;;11.43;7.50;;;4.10;97.00;;;;;;5060847;28;20521;-68
2022/11/17 13:08:56;;;;;;;12.18;7.63;;;4.10;97.00;;;;;;5070503;28;20029;-68
2022/11/17 13:11:22;;;;;;;12.52;8.32;;;4.10;97.10;;;;;;5065080;28;20507;-68
2022/11/17 13:13:48;;;;;;;13.38;8.20;;;4.00;97.10;;;;;;5064914;28;20107;-72
2022/11/17 13:16:19;;;;;;;17.20;7.57;;;4.10;97.10;;;;;;5061044;28;20082;-70
2022/11/17 13:18:45;;;;;;;13.43;7.97;;;4.00;96.90;;;;;;5065361;28;20103;-68
2022/11/17 13:21:31;;;;;;;12.88;7.43;;;4.00;97.10;;;;;;5066280;28;20099;-68
2022/11/17 13:23:59;;;;;;;12.40;7.30;;;4.00;97.10;;;;;;5070746;28;20384;-68
2022/11/17 13:26:37;;;;;;;12.77;7.82;;;4.00;97.10;;;;;;5069380;28;20479;-69
2022/11/17 13:29:05;;;;;;;12.57;7.47;;;4.00;97.20;;;;;;5072181;28;20040;-69
2022/11/17 13:31:30;;;;;;;11.43;6.82;;;3.90;97.40;;;;;;5072197;28;20076;-70